OIFK  Kashan  Airport

Iran

Add Bookmark
ICAO OIFK
Type Airport
Status Operational
Latitude
33° 53' 43" N
33.895302
Longitude
51° 34' 37" E
51.577000
Local (GMT +4.5 ) UTC
May 31, 2016 12:47 am May 30, 2016 20:17
Sunrise-Sunset Local UTC
Begin Civil Twilight 05:23 am 00:53
Sunrise 05:52 am 01:22
Sunset 08:10 pm 15:40
End Civil Twilight 08:39 pm 16:09
VFR
VFR
MVFR
MVFR
IFR
IFR
LIFR
LIFR
Unknown
Unavailable

Current Weather

METAR Observed VFR
OIFK 302000Z 00000KT CAVOK 29/04 Q1009 Mon, May 30, 2016 @ 20:00 UTC
(17 Minutes ago)
Visual Flight Rules
Wind Visibility Conditions
Calm 10 km or more
  • No significant weather
Temperatures Readings Precipitation
Current Temp
29°C
84°F
Dewpoint
4°C
39°F
Humidity 20%
Altimeter 29.79" Hg
Sea Level Pressure 1,009 mb
Field Elevation
982 m
3,222 ft
None Recorded
-
-

CheckWX.com is intended as a tool to help pilots better visualize weather data. It is not intended as a substitute for an official weather briefing obtained from a Flight Service Station. CheckWX.com does not meet the FAA requirements for an official pre-flight weather briefing. Therefore, it's important that pilots still call and obtain an official FSS pre-flight weather briefing.

© 2007-2016 CheckWX.com
20:17:22 UTC